Terminal Aerodrome Forecast
Issued by NWS Charleston, WV

Current Version | Previous Version | Text Only | Print | Product List | Glossary Off
Versions: 1 2 3 4 5 6 7 8 9 10 11 12 13 14 15 16 17 18 19 20 21 22 23 24 25 26

836
FTUS41 KRLX 140527
TAFEKN
TAF
KEKN 140527Z 1406/1506 13005KT 4SM -RA OVC018
     FM140900 13007KT 3SM -RA OVC006
     FM141400 15007KT 2SM -RA OVC006
     FM142000 23004KT 2SM -RA OVC003=

USA.gov is the U.S. government's official web portal to all federal, state and local government web resources and services.